Home   Weather   Almaty   Past weeks
Flag for Kazakhstan

Past Weather in Almaty, Kazakhstan — Yesterday and Last 2 Weeks

Currently: 59 °F. Clear. (Weather station: Almaty Airport, Kazakhstan). See more current weather

Past Weather in Almaty — Graph

°F

Almaty Temperature Yesterday

Maximum temperature yesterday: 63 °F (at 2:00 pm)
Minimum temperature yesterday: 34 °F (at 5:30 am)
Average temperature yesterday: 50 °F

High & Low Weather Summary for the Past Weeks

 TemperatureHumidityPressure
High70 °F (Mar 11, 1:30 pm)100% (Mar 12, 8:16 pm)30.30 "Hg (Mar 12, 8:16 pm)
Low23 °F (Mar 21, 5:00 am)19% (Mar 15, 2:00 pm)29.95 "Hg (Mar 11, 1:30 pm)
Average43 °F69%30.09 "Hg
* Reported Mar 11 11:00 am — Mar 26 11:00 am, Almaty. Weather by CustomWeather, © 2023

Note: Actual official high and low records may vary slightly from our data, if they occured in-between our weather recording intervals... More about our weather records

Almaty Weather History for the Previous 24 Hours

Scroll right to see more
 ConditionsComfort  
Time TempWeatherWind HumidityBarometerVisibility
11:00 am
Sun, Mar 26
59 °FClear.3 mph39%30.04 "HgN/A
10:30 am57 °FClear.3 mph41%30.04 "HgN/A
10:00 am55 °FClear.3 mph44%30.04 "HgN/A
9:30 am54 °FClear.3 mph47%30.04 "HgN/A
9:00 am52 °FClear.No wind50%30.04 "HgN/A
8:30 am50 °FClear.1 mph54%30.04 "HgN/A
8:00 am43 °FClear.3 mph71%30.04 "HgN/A
7:30 am39 °FClear.1 mph70%30.04 "HgN/A
7:00 am39 °FClear.1 mph70%30.04 "HgN/A
5:30 am41 °FFog.6 mph70%30.01 "Hg3 mi
5:00 am41 °FFog.6 mph70%30.01 "Hg3 mi
4:30 am39 °FFog.3 mph75%30.01 "Hg3 mi
4:00 am39 °FFog.1 mph75%30.01 "Hg2 mi
3:30 am43 °FPassing clouds.6 mph66%30.01 "Hg2 mi
3:00 am43 °FPassing clouds.6 mph66%30.01 "Hg2 mi
2:30 am43 °FFog.6 mph66%30.01 "Hg2 mi
2:00 am43 °FFog.6 mph71%30.04 "Hg1 mi
1:30 am41 °FFog.3 mph70%30.04 "Hg1 mi
1:00 am43 °FFog.3 mph71%30.04 "Hg1 mi
12:00 am43 °FFog.3 mph71%30.04 "Hg1 mi
11:30 pm
Sat, Mar 25
45 °FClear.3 mph66%30.04 "Hg1 mi
11:00 pm46 °FClear.6 mph62%30.04 "Hg1 mi
10:30 pm46 °FClear.3 mph62%30.04 "Hg1 mi
10:00 pm48 °FClear.3 mph58%30.04 "Hg1 mi
9:30 pm50 °FClear.3 mph54%30.04 "Hg1 mi
9:00 pm50 °FClear.3 mph54%30.04 "Hg1 mi
8:30 pm52 °FClear.6 mph54%30.04 "Hg1 mi
8:00 pm54 °FClear.3 mph51%30.04 "Hg1 mi
7:30 pm55 °FClear.3 mph47%30.01 "Hg3 mi
7:00 pm55 °FClear.6 mph51%30.01 "HgN/A
6:30 pm59 °FClear.6 mph39%29.98 "HgN/A
6:00 pm61 °FClear.3 mph34%29.98 "HgN/A
5:30 pm63 °FClear.6 mph32%29.98 "HgN/A
5:00 pm63 °FClear.3 mph32%29.98 "HgN/A
4:30 pm63 °FClear.6 mph30%29.98 "HgN/A
4:00 pm63 °FClear.3 mph30%29.98 "HgN/A
3:30 pm63 °FClear.6 mph32%29.98 "HgN/A
3:00 pm63 °FClear.6 mph30%29.98 "HgN/A
2:30 pm63 °FClear.3 mph30%29.98 "HgN/A
2:00 pm63 °FClear.6 mph27%29.98 "HgN/A
1:30 pm61 °FClear.3 mph31%30.01 "HgN/A
1:00 pm59 °FClear.3 mph31%30.01 "HgN/A
12:30 pm57 °FClear.3 mph33%30.01 "HgN/A
12:00 pm57 °FClear.1 mph36%30.01 "HgN/A
Weather by CustomWeather, © 2023

See weather overview